Time;durP1;ratioP1;P1;durP2;ratioP2;P2;SDS_P1;SDS_P2;PMS_P1;PMS_P2;Temp;Humidity;BMP_temperature;BMP_pressure;BME280_temperature;BME280_humidity;BME280_pressure;Samples;Min_cycle;Max_cycle;Signal;HPM_P1;HPM_P2
2022/07/15 00:02:13;;;;;;;9.77;3.55;;;;;;;;;;4993429;28;20049;-72
2022/07/15 00:04:39;;;;;;;5.25;3.10;;;;;;;;;;4993200;28;20481;-72
2022/07/15 00:07:06;;;;;;;6.75;3.05;;;;;;;;;;4992938;28;20022;-75
2022/07/15 00:12:16;;;;;;;6.18;3.40;;;;;;;;;;4993257;28;20036;-75
2022/07/15 00:14:41;;;;;;;6.03;3.35;;;;;;;;;;4992240;28;20387;-76
2022/07/15 00:17:07;;;;;;;5.30;3.20;;;;;;;;;;4992861;28;20037;-75
2022/07/15 00:19:36;;;;;;;4.35;3.05;;;;;;;;;;4993011;28;20038;-76
2022/07/15 00:22:02;;;;;;;6.15;3.25;;;;;;;;;;4992887;28;20030;-73
2022/07/15 00:24:28;;;;;;;7.68;3.00;;;;;;;;;;4993071;28;20053;-76
2022/07/15 00:26:54;;;;;;;4.90;3.13;;;;;;;;;;4992415;28;20029;-76
2022/07/15 00:29:19;;;;;;;5.47;2.75;;;;;;;;;;4992640;28;20034;-76
2022/07/15 00:31:45;;;;;;;6.97;3.00;;;;;;;;;;4992440;28;20050;-75
2022/07/15 00:34:11;;;;;;;4.45;3.00;;;;;;;;;;4992797;28;20414;-76
2022/07/15 00:36:36;;;;;;;7.22;2.92;;;;;;;;;;4992337;28;20080;-75
2022/07/15 00:39:03;;;;;;;6.93;2.90;;;;;;;;;;4992557;28;20125;-74
2022/07/15 00:41:41;;;;;;;6.80;2.83;;;;;;;;;;4992594;28;20037;-76
2022/07/15 00:44:07;;;;;;;7.15;3.08;;;;;;;;;;4992483;28;20022;-74
2022/07/15 00:46:34;;;;;;;3.88;2.70;;;;;;;;;;4991997;28;20026;-75
2022/07/15 00:49:02;;;;;;;4.35;2.70;;;;;;;;;;4992332;28;20026;-75
2022/07/15 00:51:35;;;;;;;6.45;2.72;;;;;;;;;;4992166;28;20617;-75
2022/07/15 00:54:02;;;;;;;7.05;3.00;;;;;;;;;;4992301;28;20027;-76
2022/07/15 00:56:30;;;;;;;6.35;2.80;;;;;;;;;;4991905;28;20023;-74
2022/07/15 00:58:58;;;;;;;7.80;3.10;;;;;;;;;;4992143;28;20491;-72
2022/07/15 01:01:24;;;;;;;8.32;2.88;;;;;;;;;;4991977;28;20031;-73
2022/07/15 01:03:51;;;;;;;5.57;2.80;;;;;;;;;;4992134;28;20034;-74
2022/07/15 01:06:16;;;;;;;4.95;2.83;;;;;;;;;;4991752;28;20027;-73
2022/07/15 01:08:42;;;;;;;5.40;3.00;;;;;;;;;;4991933;28;20023;-72
2022/07/15 01:11:08;;;;;;;5.57;2.72;;;;;;;;;;4991931;28;20036;-75
2022/07/15 01:13:33;;;;;;;5.10;2.92;;;;;;;;;;4992009;28;20041;-74
2022/07/15 01:15:59;;;;;;;5.35;2.90;;;;;;;;;;4991659;28;20108;-76
2022/07/15 01:18:24;;;;;;;6.20;2.90;;;;;;;;;;4992054;28;20470;-76
2022/07/15 01:20:49;;;;;;;7.50;3.00;;;;;;;;;;4991518;28;20030;-75
2022/07/15 01:23:16;;;;;;;5.13;2.95;;;;;;;;;;4991832;28;20050;-75
2022/07/15 01:25:42;;;;;;;4.63;2.95;;;;;;;;;;4990982;28;20026;-76
2022/07/15 01:28:08;;;;;;;5.93;2.90;;;;;;;;;;4991336;28;20022;-72
2022/07/15 01:30:34;;;;;;;8.95;3.00;;;;;;;;;;4991709;28;20058;-73
2022/07/15 01:33:00;;;;;;;6.72;3.20;;;;;;;;;;4991394;28;20588;-73
2022/07/15 01:35:26;;;;;;;5.68;3.05;;;;;;;;;;4992002;28;20034;-73
2022/07/15 01:37:51;;;;;;;4.35;2.88;;;;;;;;;;4990974;28;20069;-73
2022/07/15 01:40:17;;;;;;;5.35;2.90;;;;;;;;;;4991332;28;20053;-74
2022/07/15 01:42:43;;;;;;;4.32;3.08;;;;;;;;;;4991165;28;20030;-74
2022/07/15 01:45:10;;;;;;;8.45;3.35;;;;;;;;;;4991453;28;20022;-73
2022/07/15 01:47:45;;;;;;;6.18;3.13;;;;;;;;;;4990992;28;20030;-73
2022/07/15 01:50:11;;;;;;;6.03;3.20;;;;;;;;;;4991394;28;20026;-73
2022/07/15 01:52:36;;;;;;;5.28;3.33;;;;;;;;;;4991032;28;20110;-75
2022/07/15 01:55:03;;;;;;;6.55;3.00;;;;;;;;;;4991225;28;20414;-73
2022/07/15 01:57:28;;;;;;;5.00;3.38;;;;;;;;;;4990564;28;20130;-71
2022/07/15 01:59:54;;;;;;;4.70;3.40;;;;;;;;;;4973577;28;20105;-72
2022/07/15 02:02:19;;;;;;;6.82;3.72;;;;;;;;;;4990886;28;20053;-73
2022/07/15 02:04:45;;;;;;;5.15;3.42;;;;;;;;;;4991068;28;20057;-73
2022/07/15 02:07:10;;;;;;;6.15;4.32;;;;;;;;;;4990844;28;20077;-74
2022/07/15 02:09:35;;;;;;;7.15;4.00;;;;;;;;;;4991200;28;20096;-74
2022/07/15 02:12:01;;;;;;;10.88;4.10;;;;;;;;;;4990757;28;20049;-73
2022/07/15 02:14:26;;;;;;;9.48;4.30;;;;;;;;;;4990862;28;20030;-73
2022/07/15 02:16:52;;;;;;;9.27;4.85;;;;;;;;;;4990522;28;20034;-73
2022/07/15 02:19:17;;;;;;;7.90;4.93;;;;;;;;;;4990867;28;20049;-73
2022/07/15 02:21:43;;;;;;;8.43;5.00;;;;;;;;;;4990720;28;20101;-73
2022/07/15 02:24:08;;;;;;;7.50;5.15;;;;;;;;;;4990781;28;20119;-75
2022/07/15 02:26:34;;;;;;;7.85;5.88;;;;;;;;;;4990566;28;20078;-73
2022/07/15 02:28:59;;;;;;;9.95;5.78;;;;;;;;;;4990812;28;20404;-72
2022/07/15 02:31:25;;;;;;;8.77;6.00;;;;;;;;;;4990522;28;20491;-72
2022/07/15 02:33:51;;;;;;;7.88;6.28;;;;;;;;;;4990461;28;20062;-72
2022/07/15 02:36:16;;;;;;;12.98;6.90;;;;;;;;;;4990343;28;20034;-73
2022/07/15 02:38:42;;;;;;;9.57;6.75;;;;;;;;;;4995470;28;20030;-72
2022/07/15 02:41:08;;;;;;;12.82;7.40;;;;;;;;;;4997259;28;20029;-72
2022/07/15 02:43:36;;;;;;;11.05;7.63;;;;;;;;;;4996984;28;20041;-73
2022/07/15 02:46:01;;;;;;;13.25;7.57;;;;;;;;;;4997213;28;20426;-72
2022/07/15 02:48:27;;;;;;;10.65;7.32;;;;;;;;;;4996703;28;20500;-71
2022/07/15 02:50:53;;;;;;;10.75;7.45;;;;;;;;;;4997078;28;20023;-72
2022/07/15 02:53:20;;;;;;;11.70;7.15;;;;;;;;;;4996726;28;20146;-75
2022/07/15 02:55:46;;;;;;;10.82;7.45;;;;;;;;;;4997052;28;20023;-73
2022/07/15 02:58:12;;;;;;;10.73;7.63;;;;;;;;;;4996666;28;20042;-75
2022/07/15 03:00:38;;;;;;;13.13;7.50;;;;;;;;;;4996917;28;20058;-72
2022/07/15 03:03:03;;;;;;;10.27;7.45;;;;;;;;;;4996662;28;20033;-73
2022/07/15 03:05:29;;;;;;;11.23;8.05;;;;;;;;;;4996908;28;20029;-73
2022/07/15 03:07:54;;;;;;;10.70;8.13;;;;;;;;;;4996444;28;20391;-74
2022/07/15 03:10:20;;;;;;;13.95;7.82;;;;;;;;;;4997018;28;20026;-72
2022/07/15 03:12:45;;;;;;;10.75;7.90;;;;;;;;;;4996664;28;20030;-72
2022/07/15 03:15:14;;;;;;;13.00;8.57;;;;;;;;;;4996903;28;20030;-73
2022/07/15 03:17:42;;;;;;;14.68;8.02;;;;;;;;;;4996398;28;20028;-72
2022/07/15 03:20:09;;;;;;;11.65;8.32;;;;;;;;;;4996685;28;20386;-72
2022/07/15 03:22:35;;;;;;;11.48;7.88;;;;;;;;;;4996425;28;20114;-72
2022/07/15 03:25:01;;;;;;;12.70;8.10;;;;;;;;;;4996984;28;20094;-76
2022/07/15 03:27:26;;;;;;;13.68;8.75;;;;;;;;;;4996479;28;20027;-77
2022/07/15 03:29:52;;;;;;;12.00;8.85;;;;;;;;;;4996819;28;20026;-80
2022/07/15 03:32:19;;;;;;;13.18;8.30;;;;;;;;;;4996839;28;20118;-72
2022/07/15 03:34:44;;;;;;;11.95;8.43;;;;;;;;;;4996613;28;20402;-72
2022/07/15 03:37:11;;;;;;;12.85;8.90;;;;;;;;;;4996200;28;20026;-73
2022/07/15 03:39:36;;;;;;;13.35;9.07;;;;;;;;;;4996646;28;20079;-78
2022/07/15 03:42:02;;;;;;;11.63;8.55;;;;;;;;;;4996567;28;20034;-78
2022/07/15 03:44:27;;;;;;;13.25;8.38;;;;;;;;;;4996551;28;20045;-79
2022/07/15 03:46:52;;;;;;;13.13;8.88;;;;;;;;;;4996500;28;20054;-76
2022/07/15 03:49:18;;;;;;;15.38;8.82;;;;;;;;;;4993999;28;20050;-76
2022/07/15 03:51:44;;;;;;;11.65;8.05;;;;;;;;;;4993684;28;20518;-75
2022/07/15 03:54:09;;;;;;;10.55;8.48;;;;;;;;;;4993091;28;20041;-75
2022/07/15 03:56:37;;;;;;;12.30;8.60;;;;;;;;;;4993386;28;20072;-77
2022/07/15 03:59:03;;;;;;;13.43;8.40;;;;;;;;;;4992976;28;20082;-73
2022/07/15 04:01:30;;;;;;;15.35;8.77;;;;;;;;;;4993375;28;20064;-77
2022/07/15 04:03:56;;;;;;;12.05;8.60;;;;;;;;;;4993135;28;20022;-73
2022/07/15 04:06:22;;;;;;;12.25;8.55;;;;;;;;;;4993229;28;20065;-75
2022/07/15 04:08:49;;;;;;;11.95;8.82;;;;;;;;;;4992904;28;20113;-75
2022/07/15 04:11:14;;;;;;;13.98;8.93;;;;;;;;;;4993155;28;20022;-74
2022/07/15 04:13:41;;;;;;;15.50;8.52;;;;;;;;;;4992731;28;20534;-75
2022/07/15 04:16:08;;;;;;;12.43;8.75;;;;;;;;;;4992986;28;20026;-77
2022/07/15 04:18:34;;;;;;;11.68;8.73;;;;;;;;;;4992485;28;20101;-73
2022/07/15 04:21:00;;;;;;;14.13;8.90;;;;;;;;;;4993187;28;20169;-73
2022/07/15 04:23:25;;;;;;;11.80;8.57;;;;;;;;;;4992799;28;20061;-73
2022/07/15 04:25:52;;;;;;;13.65;9.57;;;;;;;;;;4992861;28;20030;-74
2022/07/15 04:28:18;;;;;;;13.32;9.35;;;;;;;;;;4992657;28;20157;-73
2022/07/15 04:30:44;;;;;;;13.35;9.38;;;;;;;;;;4975345;28;20034;-75
2022/07/15 04:33:09;;;;;;;16.13;9.40;;;;;;;;;;4992425;28;20030;-76
2022/07/15 04:35:36;;;;;;;13.30;9.73;;;;;;;;;;4992819;28;20022;-74
2022/07/15 04:38:01;;;;;;;14.32;10.05;;;;;;;;;;4992223;28;20066;-75
2022/07/15 04:40:26;;;;;;;14.02;10.25;;;;;;;;;;4992871;28;20540;-77
2022/07/15 04:42:52;;;;;;;15.45;9.90;;;;;;;;;;4992560;28;20445;-74
2022/07/15 04:45:17;;;;;;;14.55;9.68;;;;;;;;;;4992670;28;20026;-75
2022/07/15 04:47:43;;;;;;;14.23;9.77;;;;;;;;;;4992159;28;20027;-78
2022/07/15 04:52:53;;;;;;;12.70;10.00;;;;;;;;;;4992259;28;20030;-75
2022/07/15 04:55:19;;;;;;;12.13;10.10;;;;;;;;;;4992590;28;20034;-79
2022/07/15 04:57:44;;;;;;;14.10;9.57;;;;;;;;;;4992087;28;20391;-75
2022/07/15 05:00:10;;;;;;;13.80;10.30;;;;;;;;;;4992015;28;20097;-77
2022/07/15 05:02:36;;;;;;;13.68;10.15;;;;;;;;;;4992069;28;20453;-78
2022/07/15 05:05:01;;;;;;;14.60;10.10;;;;;;;;;;4991890;28;20118;-76
2022/07/15 05:07:27;;;;;;;15.23;10.25;;;;;;;;;;4991612;28;20088;-77
2022/07/15 05:09:52;;;;;;;20.98;10.80;;;;;;;;;;4991784;28;20019;-77
2022/07/15 05:12:18;;;;;;;15.63;10.25;;;;;;;;;;4992004;28;20599;-76
2022/07/15 05:14:43;;;;;;;12.52;9.93;;;;;;;;;;4991800;28;20478;-76
2022/07/15 05:17:10;;;;;;;14.85;11.13;;;;;;;;;;4992045;28;20045;-77
2022/07/15 05:19:36;;;;;;;15.82;11.10;;;;;;;;;;4991682;28;20101;-73
2022/07/15 05:22:01;;;;;;;14.18;10.45;;;;;;;;;;4991720;28;20451;-75
2022/07/15 05:24:27;;;;;;;15.43;11.07;;;;;;;;;;4991575;28;20109;-79
2022/07/15 05:26:52;;;;;;;15.13;10.73;;;;;;;;;;4991619;28;20015;-76
2022/07/15 05:29:21;;;;;;;15.65;10.70;;;;;;;;;;4991487;28;20400;-76
2022/07/15 05:31:47;;;;;;;17.77;10.50;;;;;;;;;;4991979;28;20023;-74
2022/07/15 05:34:13;;;;;;;15.98;11.15;;;;;;;;;;4991626;28;20497;-72
2022/07/15 05:36:38;;;;;;;16.08;10.60;;;;;;;;;;4991818;28;20054;-79
2022/07/15 05:39:04;;;;;;;19.30;10.73;;;;;;;;;;4991050;28;20422;-78
2022/07/15 05:41:32;;;;;;;14.88;11.15;;;;;;;;;;4991461;28;20403;-75
2022/07/15 05:43:58;;;;;;;15.35;10.68;;;;;;;;;;4991100;28;20022;-75
2022/07/15 05:46:23;;;;;;;16.73;11.40;;;;;;;;;;4991348;28;20028;-77
2022/07/15 05:48:49;;;;;;;18.65;11.82;;;;;;;;;;4991108;28;20026;-73
2022/07/15 05:51:14;;;;;;;20.13;11.82;;;;;;;;;;4991140;28;20022;-73
2022/07/15 05:53:39;;;;;;;17.80;11.10;;;;;;;;;;4990852;28;20541;-73
2022/07/15 05:56:06;;;;;;;19.42;11.70;;;;;;;;;;4991365;28;20026;-74
2022/07/15 05:58:31;;;;;;;17.08;12.15;;;;;;;;;;4990694;28;20129;-73
2022/07/15 06:00:56;;;;;;;19.92;12.55;;;;;;;;;;4990981;28;20105;-74
2022/07/15 06:03:22;;;;;;;15.85;11.98;;;;;;;;;;4991279;28;20121;-73
2022/07/15 06:05:47;;;;;;;19.42;12.82;;;;;;;;;;4990827;28;20030;-73
2022/07/15 06:08:13;;;;;;;19.45;13.32;;;;;;;;;;4990992;28;20025;-73
2022/07/15 06:10:38;;;;;;;17.90;12.95;;;;;;;;;;4990963;28;20557;-73
2022/07/15 06:13:04;;;;;;;19.13;12.95;;;;;;;;;;4990479;28;20022;-73
2022/07/15 06:15:30;;;;;;;21.27;13.35;;;;;;;;;;4990718;28;20434;-72
2022/07/15 06:17:56;;;;;;;24.60;14.63;;;;;;;;;;4990670;28;20034;-73
2022/07/15 06:20:22;;;;;;;18.85;12.57;;;;;;;;;;4990905;28;20434;-73
2022/07/15 06:22:48;;;;;;;19.60;14.05;;;;;;;;;;4990842;28;20079;-74
2022/07/15 06:25:13;;;;;;;20.75;13.55;;;;;;;;;;4973251;28;20062;-73
2022/07/15 06:27:39;;;;;;;26.00;14.88;;;;;;;;;;4990710;28;20029;-73
2022/07/15 06:30:05;;;;;;;18.52;13.65;;;;;;;;;;4990676;28;20482;-73
2022/07/15 06:32:31;;;;;;;20.45;13.75;;;;;;;;;;4990591;28;20064;-78
2022/07/15 06:34:56;;;;;;;19.80;14.45;;;;;;;;;;4990569;28;20113;-75
2022/07/15 06:37:22;;;;;;;18.83;15.02;;;;;;;;;;4990411;28;20033;-73
2022/07/15 06:39:48;;;;;;;18.80;14.55;;;;;;;;;;4990016;28;20022;-76
2022/07/15 06:42:13;;;;;;;17.52;13.88;;;;;;;;;;4990779;28;20081;-76
2022/07/15 06:44:38;;;;;;;24.55;15.15;;;;;;;;;;4990668;28;20034;-79
2022/07/15 06:47:06;;;;;;;20.80;14.13;;;;;;;;;;4990912;28;20031;-78
2022/07/15 06:49:35;;;;;;;19.80;14.32;;;;;;;;;;4990045;28;20034;-78
2022/07/15 06:52:03;;;;;;;17.52;13.27;;;;;;;;;;4990497;28;20585;-75
2022/07/15 06:54:29;;;;;;;19.65;13.57;;;;;;;;;;4990348;28;20058;-76
2022/07/15 06:56:54;;;;;;;19.75;13.88;;;;;;;;;;4990472;28;20077;-78
2022/07/15 06:59:20;;;;;;;17.15;12.98;;;;;;;;;;4990074;28;20129;-77
2022/07/15 07:01:46;;;;;;;21.30;12.93;;;;;;;;;;4990510;28;20466;-78
2022/07/15 07:04:11;;;;;;;20.75;14.00;;;;;;;;;;4990866;28;20486;-78
2022/07/15 07:06:37;;;;;;;17.90;13.18;;;;;;;;;;4990578;28;20027;-78
2022/07/15 07:09:03;;;;;;;16.70;12.57;;;;;;;;;;4990139;28;20442;-78
2022/07/15 07:11:28;;;;;;;18.58;12.40;;;;;;;;;;4990104;28;20026;-78
2022/07/15 07:13:54;;;;;;;15.85;12.57;;;;;;;;;;4990216;28;20541;-79
2022/07/15 07:16:19;;;;;;;18.77;12.25;;;;;;;;;;4990279;28;20372;-78
2022/07/15 07:18:45;;;;;;;17.48;12.50;;;;;;;;;;4990317;28;20554;-78
2022/07/15 07:21:12;;;;;;;20.70;12.98;;;;;;;;;;4990425;28;20073;-78
2022/07/15 07:23:39;;;;;;;17.88;12.23;;;;;;;;;;4990277;28;20025;-72
2022/07/15 07:26:06;;;;;;;17.10;12.43;;;;;;;;;;4993230;28;20114;-72
2022/07/15 07:28:32;;;;;;;17.45;11.55;;;;;;;;;;4993662;28;20029;-71
2022/07/15 07:30:58;;;;;;;16.75;12.05;;;;;;;;;;4976392;28;20030;-72
2022/07/15 07:33:24;;;;;;;16.20;11.57;;;;;;;;;;4993649;28;20102;-71
2022/07/15 07:35:50;;;;;;;20.15;12.23;;;;;;;;;;4993715;28;20106;-72
2022/07/15 07:38:15;;;;;;;16.05;11.55;;;;;;;;;;4993470;28;20029;-80
2022/07/15 07:40:41;;;;;;;19.10;11.90;;;;;;;;;;4993462;28;20550;-72
2022/07/15 07:43:06;;;;;;;16.40;11.60;;;;;;;;;;4993786;28;20492;-72
2022/07/15 07:45:32;;;;;;;18.98;11.50;;;;;;;;;;4993538;28;20029;-72
2022/07/15 07:47:57;;;;;;;18.73;11.68;;;;;;;;;;4993390;28;20550;-78
2022/07/15 07:50:23;;;;;;;18.38;11.35;;;;;;;;;;4992957;28;20072;-77
2022/07/15 07:52:48;;;;;;;19.20;11.43;;;;;;;;;;4993592;28;20439;-78
2022/07/15 07:55:17;;;;;;;15.00;11.32;;;;;;;;;;4993518;28;20022;-78
2022/07/15 07:57:50;;;;;;;16.85;11.90;;;;;;;;;;4993740;28;20046;-78
2022/07/15 08:00:17;;;;;;;14.13;11.45;;;;;;;;;;4993177;28;20131;-78
2022/07/15 08:02:44;;;;;;;16.15;11.02;;;;;;;;;;4993228;28;20050;-77
2022/07/15 08:05:10;;;;;;;17.23;11.70;;;;;;;;;;4992989;28;20082;-78
2022/07/15 08:07:36;;;;;;;12.80;10.90;;;;;;;;;;4992986;28;20097;-76
2022/07/15 08:10:05;;;;;;;15.05;11.73;;;;;;;;;;4992958;28;20467;-76
2022/07/15 08:12:31;;;;;;;14.57;11.30;;;;;;;;;;4975663;28;20081;-77
2022/07/15 08:14:57;;;;;;;16.83;11.38;;;;;;;;;;4993245;28;20437;-78
2022/07/15 08:17:22;;;;;;;16.65;11.25;;;;;;;;;;4975616;28;20110;-75
2022/07/15 08:19:48;;;;;;;17.38;11.18;;;;;;;;;;4992988;28;20022;-76
2022/07/15 08:22:14;;;;;;;16.95;11.30;;;;;;;;;;4992741;28;20414;-75
2022/07/15 08:24:40;;;;;;;17.60;11.35;;;;;;;;;;4992804;28;20029;-77
2022/07/15 08:27:06;;;;;;;17.95;11.60;;;;;;;;;;4975087;28;20509;-76
2022/07/15 08:29:31;;;;;;;15.73;11.45;;;;;;;;;;4993024;28;20501;-77
2022/07/15 08:31:57;;;;;;;16.60;11.10;;;;;;;;;;4992904;28;20388;-75
2022/07/15 08:34:22;;;;;;;14.73;11.18;;;;;;;;;;4992838;28;20070;-74
2022/07/15 08:36:48;;;;;;;17.58;10.77;;;;;;;;;;4992260;28;20036;-76
2022/07/15 08:39:13;;;;;;;14.88;10.77;;;;;;;;;;4992353;28;20097;-76
2022/07/15 08:41:39;;;;;;;14.10;11.25;;;;;;;;;;4992312;28;20033;-76
2022/07/15 08:44:06;;;;;;;15.23;10.45;;;;;;;;;;4992592;28;20034;-77
2022/07/15 08:46:33;;;;;;;14.35;10.50;;;;;;;;;;4992375;28;20027;-74
2022/07/15 08:49:10;;;;;;;13.48;10.63;;;;;;;;;;4992761;28;20027;-76
2022/07/15 08:51:40;;;;;;;16.35;10.52;;;;;;;;;;4992078;28;20023;-74
2022/07/15 08:54:06;;;;;;;;;;;;;;;;;;4992775;28;20122;-74
2022/07/15 08:56:35;;;;;;;15.95;10.40;;;;;;;;;;4992155;28;20004;-72
2022/07/15 08:59:03;;;;;;;15.85;10.07;;;;;;;;;;4991817;28;20133;-74
2022/07/15 09:01:30;;;;;;;13.40;10.13;;;;;;;;;;4974505;28;20039;-77
2022/07/15 09:03:56;;;;;;;17.13;10.13;;;;;;;;;;4992107;28;20526;-78
2022/07/15 09:06:36;;;;;;;17.30;10.25;;;;;;;;;;4992050;28;20023;-76
2022/07/15 09:09:31;;;;;;;16.50;9.98;;;;;;;;;;4991922;28;20025;-78
2022/07/15 09:12:04;;;;;;;13.73;9.75;;;;;;;;;;4992123;28;20022;-76
2022/07/15 09:14:31;;;;;;;14.07;9.90;;;;;;;;;;4991767;28;20034;-76
2022/07/15 09:17:11;;;;;;;14.45;9.65;;;;;;;;;;4991520;28;20514;-77
2022/07/15 09:20:14;;;;;;;18.08;10.02;;;;;;;;;;4991753;28;20491;-74
2022/07/15 09:22:55;;;;;;;14.63;9.70;;;;;;;;;;4991498;28;20034;-73
2022/07/15 09:25:21;;;;;;;14.73;9.68;;;;;;;;;;4991883;28;20030;-78
2022/07/15 09:27:47;;;;;;;12.98;9.45;;;;;;;;;;4991507;28;20076;-74
2022/07/15 09:33:39;;;;;;;18.35;9.30;;;;;;;;;;4991398;28;20103;-76
2022/07/15 09:36:14;;;;;;;13.75;9.20;;;;;;;;;;4990815;28;20042;-74
2022/07/15 09:38:44;;;;;;;11.23;8.90;;;;;;;;;;4991335;28;20577;-73
2022/07/15 09:41:39;;;;;;;14.48;8.90;;;;;;;;;;4991102;28;20105;-74
2022/07/15 09:44:05;;;;;;;14.70;8.93;;;;;;;;;;4991572;28;20031;-73
2022/07/15 09:46:51;;;;;;;14.75;8.52;;;;;;;;;;4990991;28;20037;-72
2022/07/15 09:49:23;;;;;;;12.10;9.15;;;;;;;;;;4991309;28;20019;-74
2022/07/15 09:51:54;;;;;;;13.85;9.75;;;;;;;;;;4990789;28;20054;-72
2022/07/15 09:54:24;;;;;;;13.38;8.90;;;;;;;;;;4990977;28;20031;-72
2022/07/15 09:56:51;;;;;;;13.10;8.48;;;;;;;;;;4991071;28;20027;-72
2022/07/15 09:59:17;;;;;;;12.90;8.93;;;;;;;;;;4990752;28;20046;-72
2022/07/15 10:01:44;;;;;;;11.32;8.65;;;;;;;;;;4990911;28;20034;-76
2022/07/15 10:04:10;;;;;;;11.80;8.57;;;;;;;;;;4991428;28;20018;-73
2022/07/15 10:06:38;;;;;;;13.90;8.57;;;;;;;;;;4990877;28;20053;-75
2022/07/15 10:09:05;;;;;;;20.40;8.80;;;;;;;;;;4973383;28;20034;-73
2022/07/15 10:11:37;;;;;;;11.52;8.70;;;;;;;;;;4990571;28;20386;-76
2022/07/15 10:14:15;;;;;;;12.45;8.70;;;;;;;;;;4990940;28;20117;-74
2022/07/15 10:16:46;;;;;;;11.85;8.20;;;;;;;;;;4990997;28;20031;-73
2022/07/15 10:19:48;;;;;;;12.10;8.35;;;;;;;;;;4991063;28;20026;-74
2022/07/15 10:22:54;;;;;;;13.48;8.38;;;;;;;;;;4959537;28;20041;-73
2022/07/15 10:25:41;;;;;;;14.00;7.82;;;;;;;;;;4990879;28;20121;-72
2022/07/15 10:28:14;;;;;;;13.10;7.63;;;;;;;;;;4990435;28;20495;-72
2022/07/15 10:30:40;;;;;;;11.88;7.72;;;;;;;;;;4990677;28;20046;-72
2022/07/15 10:33:14;;;;;;;11.48;6.97;;;;;;;;;;4990421;28;20061;-73
2022/07/15 10:35:48;;;;;;;13.70;7.50;;;;;;;;;;4990720;28;20034;-72
2022/07/15 10:38:35;;;;;;;11.65;7.45;;;;;;;;;;4990447;28;20065;-73
2022/07/15 10:41:10;;;;;;;12.75;8.00;;;;;;;;;;4990709;28;20022;-73
2022/07/15 10:43:52;;;;;;;13.32;7.68;;;;;;;;;;4990382;28;20034;-74
2022/07/15 10:46:19;;;;;;;9.43;7.47;;;;;;;;;;4990455;28;20027;-73
2022/07/15 10:48:45;;;;;;;11.40;7.50;;;;;;;;;;4990595;28;20077;-75
2022/07/15 10:51:12;;;;;;;13.57;7.60;;;;;;;;;;4990180;28;20481;-75
2022/07/15 10:53:45;;;;;;;12.07;7.60;;;;;;;;;;4990244;28;20026;-73
2022/07/15 10:56:30;;;;;;;11.40;7.15;;;;;;;;;;4990681;28;20455;-75
2022/07/15 10:59:08;;;;;;;11.23;7.68;;;;;;;;;;4991730;28;20081;-76
2022/07/15 11:01:34;;;;;;;11.45;6.68;;;;;;;;;;4994192;28;20031;-77
2022/07/15 11:04:21;;;;;;;11.85;6.82;;;;;;;;;;4994356;28;20030;-75
2022/07/15 11:07:07;;;;;;;11.40;6.63;;;;;;;;;;4994237;28;20026;-76
2022/07/15 11:09:53;;;;;;;9.93;6.93;;;;;;;;;;4994462;28;20038;-75
2022/07/15 11:12:32;;;;;;;9.27;6.43;;;;;;;;;;4994128;28;20030;-75
2022/07/15 11:15:18;;;;;;;9.85;6.53;;;;;;;;;;4994207;28;20113;-75
2022/07/15 11:17:46;;;;;;;12.27;6.30;;;;;;;;;;4994094;28;20026;-76
2022/07/15 11:20:35;;;;;;;8.65;5.45;;;;;;;;;;4976610;28;20018;-73
2022/07/15 11:23:02;;;;;;;7.00;5.28;;;;;;;;;;4983422;28;20042;-77
2022/07/15 11:25:33;;;;;;;8.07;5.57;;;;;;;;;;4994024;28;20042;-76
2022/07/15 11:28:04;;;;;;;8.63;5.53;;;;;;;;;;4993957;28;20056;-75
2022/07/15 11:30:34;;;;;;;9.30;5.85;;;;;;;;;;4994034;28;20030;-75
2022/07/15 11:33:02;;;;;;;12.32;5.57;;;;;;;;;;4993882;28;20372;-73
2022/07/15 11:35:28;;;;;;;9.13;5.35;;;;;;;;;;4993949;28;20502;-73
2022/07/15 11:37:59;;;;;;;9.38;5.03;;;;;;;;;;4993408;28;20030;-76
2022/07/15 11:45:58;;;;;;;6.97;5.07;;;;;;;;;;4993756;28;20517;-75
2022/07/15 11:48:24;;;;;;;10.32;5.40;;;;;;;;;;4975972;28;20115;-73
2022/07/15 11:50:57;;;;;;;7.95;5.22;;;;;;;;;;4993755;28;20155;-72
2022/07/15 11:53:24;;;;;;;8.00;4.68;;;;;;;;;;4993138;28;20027;-74
2022/07/15 11:55:58;;;;;;;7.07;4.68;;;;;;;;;;4993467;28;20507;-75
2022/07/15 11:58:27;;;;;;;6.47;4.97;;;;;;;;;;4993001;28;20046;-71
2022/07/15 12:00:53;;;;;;;7.43;5.00;;;;;;;;;;4993180;28;20030;-72
2022/07/15 12:03:19;;;;;;;7.95;4.57;;;;;;;;;;4993158;28;20034;-72
2022/07/15 12:06:05;;;;;;;6.55;3.95;;;;;;;;;;4993524;28;20029;-72
2022/07/15 12:08:42;;;;;;;5.70;3.92;;;;;;;;;;4993048;28;20563;-71
2022/07/15 12:11:22;;;;;;;5.72;4.30;;;;;;;;;;4992277;28;20130;-71
2022/07/15 12:14:02;;;;;;;6.68;4.13;;;;;;;;;;4992853;28;20038;-74
2022/07/15 12:16:34;;;;;;;10.82;5.00;;;;;;;;;;4993299;28;20044;-77
2022/07/15 12:19:14;;;;;;;8.40;4.80;;;;;;;;;;4992783;28;20085;-77
2022/07/15 12:21:42;;;;;;;7.03;5.28;;;;;;;;;;4993039;28;20023;-78
2022/07/15 12:24:17;;;;;;;9.63;5.32;;;;;;;;;;4992662;28;20109;-78
2022/07/15 12:26:52;;;;;;;7.38;5.18;;;;;;;;;;4993117;28;20034;-73
2022/07/15 12:29:22;;;;;;;7.10;5.10;;;;;;;;;;4992701;28;20104;-76
2022/07/15 12:31:58;;;;;;;6.30;5.38;;;;;;;;;;4992761;28;20031;-76
2022/07/15 12:34:53;;;;;;;9.13;6.00;;;;;;;;;;4992631;28;20038;-75
2022/07/15 12:37:44;;;;;;;7.35;5.90;;;;;;;;;;4992692;28;20571;-76
2022/07/15 12:40:12;;;;;;;8.20;5.95;;;;;;;;;;4992068;28;20069;-77
2022/07/15 12:42:48;;;;;;;8.77;5.90;;;;;;;;;;4992640;28;20026;-77
2022/07/15 12:45:22;;;;;;;7.47;5.32;;;;;;;;;;4975656;28;20027;-79
2022/07/15 12:48:04;;;;;;;6.60;5.38;;;;;;;;;;4992698;28;20026;-78
2022/07/15 12:50:35;;;;;;;8.48;6.18;;;;;;;;;;4992450;28;20511;-77
2022/07/15 12:53:02;;;;;;;8.52;6.63;;;;;;;;;;4991868;28;20029;-75
2022/07/15 12:55:39;;;;;;;8.23;7.03;;;;;;;;;;4992246;28;20430;-78
2022/07/15 12:58:14;;;;;;;14.77;8.60;;;;;;;;;;4992179;28;20105;-76
2022/07/15 13:00:41;;;;;;;13.45;8.82;;;;;;;;;;4992282;28;20117;-76
2022/07/15 13:03:09;;;;;;;9.65;7.43;;;;;;;;;;4992277;28;20041;-76
2022/07/15 13:05:45;;;;;;;8.88;6.63;;;;;;;;;;4992145;28;20035;-78
2022/07/15 13:08:18;;;;;;;9.40;7.40;;;;;;;;;;4991923;28;20022;-79
2022/07/15 13:10:47;;;;;;;9.88;6.90;;;;;;;;;;4991704;28;20054;-76
2022/07/15 13:13:14;;;;;;;11.48;8.45;;;;;;;;;;4974391;28;20030;-76
2022/07/15 13:15:41;;;;;;;12.50;10.13;;;;;;;;;;4992044;28;20027;-76
2022/07/15 13:18:06;;;;;;;13.18;10.30;;;;;;;;;;4992046;28;20022;-76
2022/07/15 13:20:32;;;;;;;13.88;9.85;;;;;;;;;;4991470;28;20033;-77
2022/07/15 13:22:58;;;;;;;15.40;9.77;;;;;;;;;;4991833;28;20030;-76
2022/07/15 13:25:25;;;;;;;12.75;9.13;;;;;;;;;;4991607;28;20064;-76
2022/07/15 13:27:50;;;;;;;11.57;9.35;;;;;;;;;;4991590;28;20026;-78
2022/07/15 13:30:16;;;;;;;11.38;8.75;;;;;;;;;;4991457;28;20068;-76
2022/07/15 13:32:43;;;;;;;11.07;8.60;;;;;;;;;;4991512;28;20113;-77
2022/07/15 13:35:10;;;;;;;10.45;7.97;;;;;;;;;;4991470;28;20033;-77
2022/07/15 13:37:36;;;;;;;10.00;7.63;;;;;;;;;;4991639;28;20502;-76
2022/07/15 13:40:04;;;;;;;9.77;7.97;;;;;;;;;;4991464;28;20603;-76
2022/07/15 13:42:29;;;;;;;9.88;8.18;;;;;;;;;;4991355;28;20027;-76
2022/07/15 13:44:55;;;;;;;14.85;9.05;;;;;;;;;;4991130;28;20052;-76
2022/07/15 13:47:20;;;;;;;14.10;8.45;;;;;;;;;;4991281;28;20454;-76
2022/07/15 13:52:31;;;;;;;11.90;9.77;;;;;;;;;;4990948;28;20076;-75
2022/07/15 13:54:57;;;;;;;12.95;8.23;;;;;;;;;;4991255;28;20038;-76
2022/07/15 13:57:22;;;;;;;10.30;7.85;;;;;;;;;;4991259;28;20031;-76
2022/07/15 13:59:47;;;;;;;12.68;8.60;;;;;;;;;;4991322;28;20022;-76
2022/07/15 14:02:13;;;;;;;13.80;11.50;;;;;;;;;;4991035;28;20030;-77
2022/07/15 14:04:39;;;;;;;15.35;11.60;;;;;;;;;;4990941;28;20038;-77
2022/07/15 14:07:04;;;;;;;13.35;11.95;;;;;;;;;;4990993;28;20034;-76
2022/07/15 14:09:30;;;;;;;15.98;11.30;;;;;;;;;;4990981;28;20131;-76
2022/07/15 14:11:56;;;;;;;13.07;9.80;;;;;;;;;;4991120;28;20023;-77
2022/07/15 14:14:22;;;;;;;12.98;8.40;;;;;;;;;;4990803;28;20121;-78
2022/07/15 14:16:48;;;;;;;11.80;7.63;;;;;;;;;;4991150;28;20471;-78
2022/07/15 14:19:13;;;;;;;10.63;7.65;;;;;;;;;;4990818;28;20072;-76
2022/07/15 14:21:39;;;;;;;9.73;7.13;;;;;;;;;;4973163;28;20033;-77
2022/07/15 14:24:04;;;;;;;9.07;7.30;;;;;;;;;;4990573;28;20054;-78
2022/07/15 14:26:30;;;;;;;11.63;7.90;;;;;;;;;;4990705;28;20443;-78
2022/07/15 14:28:55;;;;;;;10.80;8.30;;;;;;;;;;4990935;28;20458;-79
2022/07/15 14:31:21;;;;;;;9.68;8.65;;;;;;;;;;4990655;28;20037;-77
2022/07/15 14:33:46;;;;;;;13.23;10.02;;;;;;;;;;4990370;28;20034;-74
2022/07/15 14:36:12;;;;;;;10.75;9.13;;;;;;;;;;4990653;28;20402;-73
2022/07/15 14:38:39;;;;;;;12.70;9.13;;;;;;;;;;4990555;28;20085;-74
2022/07/15 14:41:06;;;;;;;9.73;8.00;;;;;;;;;;4990101;28;20030;-73
2022/07/15 14:43:33;;;;;;;10.52;7.65;;;;;;;;;;4990593;28;20092;-74
2022/07/15 14:45:58;;;;;;;12.02;7.60;;;;;;;;;;4990554;28;20026;-74
2022/07/15 14:48:23;;;;;;;12.30;9.15;;;;;;;;;;4990731;28;20038;-73
2022/07/15 14:50:51;;;;;;;8.80;7.68;;;;;;;;;;4990408;28;20533;-72
2022/07/15 14:53:17;;;;;;;10.65;7.53;;;;;;;;;;4990293;28;20038;-74
2022/07/15 14:55:42;;;;;;;10.43;7.38;;;;;;;;;;4990217;28;20108;-78